Tropical Cyclones
[Index]
Main Index Home Page Stock Weather Photos Extreme Storms Discussion Storm News and Storm Chasing Reports Tropical Cyclones / Hurricanes / Typhoons Weather Data and Links Wild Fires / Bushfires Weather Observation Techniques Weather Picture Catalogue Tornado Pictures and Reports Stock Video Footage and DVDs for sale
Season 2006-2007 Tropical Cyclone YANI Track Map
Season 2006-2007 Summaries (Operational Data): [AU] [SIO] [SPAC] [SH]
<<- Previous TC | 2006-2007 Season | Next TC ->>

click for intensity scale information  Lat/long Grid: Show Hide

 Date Labels: Show Hide

Operational Tropical Cyclone Data : JTWC Advisories | BoM Warnings

Name: YANI
Number: 0702

17 Nov 2006 06:00 UTC to 27 Nov 2006 18:00 UTC

    date/time    lat    long     hPa   cat  kts
2006-11-17 06    6.5   175.0    1006         20          
2006-11-17 21    7.0   176.0    1008         20          
2006-11-18 06    8.5   171.5    1003         25          
2006-11-18 21    7.7   167.3    1003         25          
2006-11-19 00    9.7   166.4    1002         25          
2006-11-19 06   10.1   164.0    1002         25          
2006-11-19 09   10.2   163.4    1002         25          
2006-11-19 18   11.8   161.8    1000         30          
2006-11-20 00   12.1   161.6    1000         30          
2006-11-20 06   12.1   160.6    1000         30          
2006-11-20 12   12.1   160.3    1001         30          
2006-11-20 18   12.1   160.3    1001         30          
2006-11-21 00   11.9   161.2    1001         30          
2006-11-21 06   11.1   161.1    1000         30          
2006-11-21 12   11.9   162.1    1000         30          
2006-11-21 18   11.6   161.6    1000         30          
2006-11-22 00   12.3   162.5     995    1    35          
2006-11-22 06   12.6   162.3     990    1    40          
2006-11-22 12   12.6   162.6     987    1    45          
2006-11-22 18   12.9   162.8     985    2    50          
2006-11-23 00   12.7   162.9     980    2    55          
2006-11-23 06   13.1   163.0     965    3    70          
2006-11-23 12   13.6   162.9     960    3    75          
2006-11-23 18   13.8   163.0     960    3    75          
2006-11-24 00   14.2   163.1     960    3    75          
2006-11-24 06   14.4   162.9     975    3    65          
2006-11-24 12   13.1   161.4     987    2    50          
2006-11-24 15   13.1   161.7     995    1    40          
2006-11-24 18   12.9   161.8     996         30          
2006-11-25 00   12.9   161.4     999         30          
2006-11-25 06   13.4   160.7    1000         30          
2006-11-25 18   13.8   160.0    1000         30          
2006-11-26 06   13.4   159.3    1000         30          
2006-11-26 18   14.3   159.0    1002         25          
2006-11-27 06   14.0   159.0    1004         20          
2006-11-27 18   14.0   158.0    1006         20          
Winds are 10-min average.

Tropical cyclone tracks developed by Michael Bath using operational warnings and advisories and Google Maps.


[Australian Severe Weather index] [Copyright Notice] [Email Contacts] [Search This Site] [Privacy Policy]
Document: tropical_cyclone_yani.htm Updated: 28 May 2013